createdAt,value
2023-12-05T00:00:46.115Z,-3.56
2023-12-05T00:03:14.095Z,-2.71
2023-12-05T00:05:42.588Z,-2.47
2023-12-05T00:08:10.444Z,-2.06
2023-12-05T00:10:38.221Z,-2.39
2023-12-05T00:13:08.489Z,-2.64
2023-12-05T00:15:36.353Z,-2.40
2023-12-05T00:18:04.392Z,-2.36
2023-12-05T00:20:32.189Z,-2.65
2023-12-05T00:22:59.981Z,-2.96
2023-12-05T00:25:27.761Z,-2.73
2023-12-05T00:27:55.625Z,-3.55
2023-12-05T00:30:24.880Z,-3.41
2023-12-05T00:32:52.728Z,-2.74
2023-12-05T00:35:21.098Z,-2.70
2023-12-05T00:37:49.036Z,-2.52
2023-12-05T00:40:16.823Z,-2.49
2023-12-05T00:42:44.611Z,-2.42
2023-12-05T00:45:15.301Z,-2.47
2023-12-05T00:47:43.144Z,-2.47
2023-12-05T00:50:10.950Z,-2.46
2023-12-05T00:52:38.811Z,-2.69
2023-12-05T00:55:06.675Z,-2.26
2023-12-05T00:57:34.953Z,-2.80
2023-12-05T01:00:02.749Z,-2.75
2023-12-05T01:02:31.340Z,-3.30
2023-12-05T01:04:59.317Z,-2.53
2023-12-05T01:07:27.663Z,-2.43
2023-12-05T01:09:55.548Z,-2.38
2023-12-05T01:12:23.364Z,-2.39
2023-12-05T01:15:00.670Z,-2.41
2023-12-05T01:17:28.549Z,-2.52
2023-12-05T01:19:56.783Z,-2.34
2023-12-05T01:22:24.621Z,-2.81
2023-12-05T01:24:55.957Z,-2.32
2023-12-05T01:27:23.859Z,-2.94
2023-12-05T01:29:51.657Z,-2.83
2023-12-05T01:32:19.452Z,-2.95
2023-12-05T01:34:47.271Z,-3.09
2023-12-05T01:37:15.027Z,-3.68
2023-12-05T01:39:42.843Z,-3.07
2023-12-05T01:42:10.587Z,-3.12
2023-12-05T01:44:38.512Z,-3.01
2023-12-05T01:47:06.800Z,-2.93
2023-12-05T01:49:37.064Z,-2.71
2023-12-05T01:52:05.601Z,-2.72
2023-12-05T01:54:33.609Z,-3.14
2023-12-05T01:57:01.560Z,-2.84
2023-12-05T01:59:29.394Z,-2.76
2023-12-05T02:01:57.379Z,-3.03
2023-12-05T02:04:25.473Z,-2.92
2023-12-05T02:06:53.411Z,-2.85
2023-12-05T02:09:21.357Z,-3.24
2023-12-05T02:11:49.142Z,-3.22
2023-12-05T02:14:16.891Z,-3.32
2023-12-05T02:17:05.717Z,-3.38
2023-12-05T02:19:43.516Z,-3.26
2023-12-05T02:22:28.669Z,-3.18
2023-12-05T02:25:02.670Z,-3.20
2023-12-05T02:27:35.815Z,-2.95
2023-12-05T02:30:04.105Z,-3.17
2023-12-05T02:32:31.856Z,-3.14
2023-12-05T02:35:00.283Z,-2.80
2023-12-05T02:37:49.829Z,-2.72
2023-12-05T02:40:33.527Z,-2.59
2023-12-05T02:43:04.184Z,-2.41
2023-12-05T02:45:32.325Z,-2.52
2023-12-05T02:48:00.379Z,-2.88
2023-12-05T02:50:28.390Z,-3.23
2023-12-05T02:52:56.203Z,-2.75
2023-12-05T02:55:23.960Z,-3.17
2023-12-05T02:57:52.056Z,-2.61
2023-12-05T03:00:20.840Z,-3.14
2023-12-05T03:02:48.705Z,-3.36
2023-12-05T03:05:18.143Z,-2.88
2023-12-05T03:07:46.106Z,-2.88
2023-12-05T03:10:13.905Z,-3.11
2023-12-05T03:12:41.753Z,-3.31
2023-12-05T03:15:10.017Z,-3.65
2023-12-05T03:17:38.058Z,-3.89
2023-12-05T03:20:06.854Z,-3.95
2023-12-05T03:22:34.695Z,-3.09
2023-12-05T03:25:02.459Z,-3.03
2023-12-05T03:27:30.293Z,-3.79
2023-12-05T03:29:58.059Z,-3.21
2023-12-05T03:32:25.871Z,-3.19
2023-12-05T03:34:53.672Z,-3.20
2023-12-05T03:37:21.470Z,-3.31
2023-12-05T03:39:49.248Z,-3.22
2023-12-05T03:42:17.100Z,-3.26
2023-12-05T03:44:44.824Z,-3.35
2023-12-05T03:47:12.588Z,-2.97
2023-12-05T03:49:40.338Z,-2.87
2023-12-05T03:52:08.166Z,-3.06
2023-12-05T03:54:36.012Z,-2.78
2023-12-05T03:57:03.979Z,-2.89
2023-12-05T03:59:31.727Z,-2.79
2023-12-05T04:01:59.521Z,-2.81
2023-12-05T04:04:27.442Z,-3.00
2023-12-05T04:06:55.317Z,-2.95
2023-12-05T04:09:23.568Z,-2.91
2023-12-05T04:11:51.338Z,-2.92
2023-12-05T04:14:19.075Z,-2.77
2023-12-05T04:16:46.854Z,-3.48
2023-12-05T04:19:14.764Z,-3.46
2023-12-05T04:21:42.607Z,-3.48
2023-12-05T04:24:10.446Z,-3.21
2023-12-05T04:26:38.237Z,-3.16
2023-12-05T04:29:06.032Z,-3.09
2023-12-05T04:31:33.733Z,-3.00
2023-12-05T04:34:02.070Z,-2.96
2023-12-05T04:36:29.941Z,-3.18
2023-12-05T04:38:57.764Z,-3.61
2023-12-05T04:41:25.490Z,-3.74
2023-12-05T04:43:53.593Z,-3.66
2023-12-05T04:46:21.364Z,-4.11
2023-12-05T04:48:49.264Z,-3.64
2023-12-05T04:51:20.957Z,-3.63
2023-12-05T04:53:48.733Z,-3.42
2023-12-05T04:56:16.528Z,-3.53
2023-12-05T04:58:44.319Z,-3.82
2023-12-05T05:01:12.054Z,-3.91
2023-12-05T05:03:39.970Z,-4.16
2023-12-05T05:06:08.051Z,-3.85
2023-12-05T05:08:35.933Z,-4.14
2023-12-05T05:11:03.936Z,-4.10
2023-12-05T05:13:33.656Z,-4.01
2023-12-05T05:16:01.545Z,-3.77
2023-12-05T05:18:29.931Z,-3.60
2023-12-05T05:20:57.712Z,-3.64
2023-12-05T05:23:25.588Z,-3.91
2023-12-05T05:25:53.415Z,-3.44
2023-12-05T05:28:21.230Z,-3.22
2023-12-05T05:30:49.684Z,-3.14
2023-12-05T05:33:17.597Z,-2.91
2023-12-05T05:35:45.485Z,-2.92
2023-12-05T05:38:13.195Z,-3.04
2023-12-05T05:40:44.205Z,-3.01
2023-12-05T05:43:12.018Z,-2.81
2023-12-05T05:45:39.837Z,-3.08
2023-12-05T05:48:07.694Z,-2.65
2023-12-05T05:50:37.303Z,-3.05
2023-12-05T05:53:05.045Z,-2.77
2023-12-05T05:55:33.554Z,-2.76
2023-12-05T05:58:01.321Z,-3.04
2023-12-05T06:00:29.167Z,-3.08
2023-12-05T06:02:56.935Z,-3.10
2023-12-05T06:05:26.069Z,-3.82
2023-12-05T06:07:53.913Z,-2.96
2023-12-05T06:10:21.888Z,-2.76
2023-12-05T06:12:49.598Z,-2.66
2023-12-05T06:15:17.535Z,-2.75
2023-12-05T06:17:45.522Z,-2.65
2023-12-05T06:20:13.333Z,-2.67
2023-12-05T06:22:41.068Z,-2.37
2023-12-05T06:25:08.967Z,-2.28
2023-12-05T06:27:36.856Z,-2.29
2023-12-05T06:30:13.178Z,-1.82
2023-12-05T06:32:48.668Z,-2.76
2023-12-05T06:35:16.518Z,-2.17
2023-12-05T06:37:44.324Z,-2.61
2023-12-05T06:40:12.465Z,-2.17
2023-12-05T06:42:41.885Z,-1.68
2023-12-05T06:45:10.578Z,-1.62
2023-12-05T06:47:39.967Z,-1.56
2023-12-05T06:50:12.686Z,-2.39
2023-12-05T06:52:41.535Z,-1.51
2023-12-05T06:55:10.048Z,-2.67
2023-12-05T06:57:38.037Z,-1.92
2023-12-05T07:00:06.767Z,-1.92
2023-12-05T07:02:34.627Z,-1.57
2023-12-05T07:05:05.798Z,-1.78
2023-12-05T07:07:34.031Z,-1.41
2023-12-05T07:10:02.197Z,-1.55
2023-12-05T07:12:30.094Z,-1.38
2023-12-05T07:14:57.951Z,-2.22
2023-12-05T07:17:25.750Z,-1.56
2023-12-05T07:19:53.517Z,-1.98
2023-12-05T07:22:21.442Z,-1.54
2023-12-05T07:24:49.151Z,-1.46
2023-12-05T07:27:16.980Z,-1.67
2023-12-05T07:29:44.766Z,-1.92
2023-12-05T07:32:12.716Z,-1.59
2023-12-05T07:34:42.623Z,-1.15
2023-12-05T07:37:10.488Z,-1.76
2023-12-05T07:39:38.349Z,-1.50
2023-12-05T07:42:08.827Z,-1.39
2023-12-05T07:44:37.024Z,-1.97
2023-12-05T07:47:07.102Z,-1.46
2023-12-05T07:49:35.425Z,-1.70
2023-12-05T07:52:05.383Z,-1.69
2023-12-05T07:54:33.264Z,-1.20
2023-12-05T07:57:01.003Z,-1.00
2023-12-05T07:59:28.763Z,-2.11
2023-12-05T08:01:56.503Z,-1.20
2023-12-05T08:04:24.399Z,-1.08
2023-12-05T08:06:52.230Z,-1.21
2023-12-05T08:09:20.086Z,-1.08
2023-12-05T08:11:47.872Z,-1.05
2023-12-05T08:14:16.090Z,-0.84
2023-12-05T08:16:43.872Z,-0.80
2023-12-05T08:19:12.342Z,-0.85
2023-12-05T08:21:40.173Z,-0.76
2023-12-05T08:24:08.039Z,-1.81
2023-12-05T08:26:36.009Z,-1.23
2023-12-05T08:29:03.869Z,-0.73
2023-12-05T08:31:31.667Z,-1.93
2023-12-05T08:34:00.076Z,-0.93
2023-12-05T08:36:28.044Z,-0.79
2023-12-05T08:38:55.965Z,-0.72
2023-12-05T08:41:23.823Z,-0.56
2023-12-05T08:43:51.714Z,-0.62
2023-12-05T08:46:19.533Z,-0.38
2023-12-05T08:48:47.507Z,-0.52
2023-12-05T08:51:16.143Z,-0.62
2023-12-05T08:53:43.981Z,-0.68
2023-12-05T08:56:12.076Z,-0.90
2023-12-05T08:58:40.158Z,-0.57
2023-12-05T09:01:11.209Z,-0.74
2023-12-05T09:03:39.116Z,-0.54
2023-12-05T09:06:07.202Z,-0.37
2023-12-05T09:08:35.064Z,-0.36
2023-12-05T09:11:02.927Z,-0.27
2023-12-05T09:13:30.687Z,-0.68
2023-12-05T09:15:58.565Z,-0.63
2023-12-05T09:18:26.492Z,-0.26
2023-12-05T09:20:54.296Z,-0.14
2023-12-05T09:23:22.590Z,-0.30
2023-12-05T09:25:50.413Z,-0.18
2023-12-05T09:28:18.208Z,-0.17
2023-12-05T09:30:46.240Z,-0.66
2023-12-05T09:33:14.089Z,-0.36
2023-12-05T09:35:41.853Z,-0.27
2023-12-05T09:38:09.554Z,0.08
2023-12-05T09:40:37.306Z,0.04
2023-12-05T09:43:05.830Z,0.20
2023-12-05T09:45:41.150Z,0.37
2023-12-05T09:48:11.136Z,0.48
2023-12-05T09:50:39.174Z,0.38
2023-12-05T09:53:10.812Z,0.59
2023-12-05T09:55:39.460Z,0.52
2023-12-05T09:58:07.527Z,0.61
2023-12-05T10:00:35.392Z,0.57
2023-12-05T10:03:03.958Z,0.63
2023-12-05T10:05:31.901Z,0.67
2023-12-05T10:08:01.134Z,0.72
2023-12-05T10:10:28.979Z,0.55
2023-12-05T10:12:57.000Z,0.76
2023-12-05T10:15:24.857Z,0.84
2023-12-05T10:17:52.849Z,0.66
2023-12-05T10:20:20.878Z,0.62
2023-12-05T10:22:48.973Z,0.57
2023-12-05T10:25:17.451Z,0.73
2023-12-05T10:27:45.375Z,0.72
2023-12-05T10:30:15.643Z,0.79
2023-12-05T10:32:46.033Z,0.79
2023-12-05T10:35:13.858Z,0.89
2023-12-05T10:37:42.692Z,0.82
2023-12-05T10:40:11.086Z,0.71
2023-12-05T10:42:38.878Z,0.85
2023-12-05T10:45:07.619Z,0.97
2023-12-05T10:47:35.461Z,0.77
2023-12-05T10:50:03.782Z,0.52
2023-12-05T10:52:32.838Z,0.83
2023-12-05T10:55:00.886Z,1.01
2023-12-05T10:57:32.391Z,1.04
2023-12-05T11:00:00.689Z,1.09
2023-12-05T11:02:28.985Z,1.07
2023-12-05T11:04:56.903Z,0.79
2023-12-05T11:07:24.672Z,1.09
2023-12-05T11:09:52.433Z,1.11
2023-12-05T11:12:20.434Z,0.82
2023-12-05T11:14:49.238Z,1.09
2023-12-05T11:17:20.492Z,1.14
2023-12-05T11:20:23.640Z,1.27
2023-12-05T11:23:29.116Z,1.47
2023-12-05T11:26:08.861Z,1.37
2023-12-05T11:28:42.459Z,1.60
2023-12-05T11:31:22.644Z,1.70
2023-12-05T11:33:53.944Z,1.74
2023-12-05T11:36:30.139Z,1.57
2023-12-05T11:38:58.204Z,1.64
2023-12-05T11:41:26.021Z,1.67
2023-12-05T11:44:15.749Z,1.76
2023-12-05T11:46:44.000Z,1.85
2023-12-05T11:49:11.914Z,1.90
2023-12-05T11:51:39.819Z,1.79
2023-12-05T11:54:07.669Z,1.78
2023-12-05T11:56:35.687Z,1.81
2023-12-05T11:59:15.546Z,1.80
2023-12-05T12:01:44.659Z,1.97
2023-12-05T12:04:22.611Z,2.06
2023-12-05T12:06:51.017Z,2.13
2023-12-05T12:09:18.954Z,2.02
2023-12-05T12:11:46.921Z,2.14
2023-12-05T12:14:20.639Z,1.82
2023-12-05T12:16:49.364Z,1.92
2023-12-05T12:19:17.740Z,1.81
2023-12-05T12:21:46.107Z,2.06
2023-12-05T12:24:23.529Z,2.15
2023-12-05T12:26:55.050Z,2.27
2023-12-05T12:29:23.130Z,2.19
2023-12-05T12:31:53.494Z,1.94
2023-12-05T12:34:22.476Z,2.25
2023-12-05T12:36:50.379Z,2.11
2023-12-05T12:39:18.284Z,2.23
2023-12-05T12:41:49.689Z,1.98
2023-12-05T12:44:17.725Z,2.17
2023-12-05T12:46:45.796Z,2.12
2023-12-05T12:49:14.006Z,1.98
2023-12-05T12:51:44.644Z,2.19
2023-12-05T12:54:12.445Z,2.36
2023-12-05T12:56:40.726Z,2.31
2023-12-05T12:59:11.380Z,2.31
2023-12-05T13:01:41.233Z,2.45
2023-12-05T13:04:12.572Z,2.55
2023-12-05T13:06:49.697Z,2.44
2023-12-05T13:09:18.805Z,2.43
2023-12-05T13:11:46.794Z,2.41
2023-12-05T13:14:15.304Z,2.32
2023-12-05T13:16:43.394Z,2.73
2023-12-05T13:19:25.603Z,2.60
2023-12-05T13:22:21.035Z,2.57
2023-12-05T13:24:48.846Z,2.42
2023-12-05T13:27:16.688Z,2.55
2023-12-05T13:29:51.736Z,2.57
2023-12-05T13:32:19.543Z,2.43
2023-12-05T13:34:47.369Z,2.37
2023-12-05T13:37:15.200Z,2.40
2023-12-05T13:39:42.972Z,2.52
2023-12-05T13:42:10.756Z,2.50
2023-12-05T13:44:43.841Z,2.51
2023-12-05T13:47:11.646Z,2.49
2023-12-05T13:49:39.536Z,2.57
2023-12-05T13:52:07.515Z,2.47
2023-12-05T13:54:35.382Z,2.42
2023-12-05T13:57:03.120Z,2.40
2023-12-05T13:59:32.933Z,2.24
2023-12-05T14:02:00.692Z,2.29
2023-12-05T14:04:28.649Z,2.17
2023-12-05T14:06:56.618Z,2.10
2023-12-05T14:09:25.483Z,2.31
2023-12-05T14:11:54.727Z,2.34
2023-12-05T14:14:22.502Z,2.33
2023-12-05T14:16:50.489Z,2.29
2023-12-05T14:19:18.744Z,2.16
2023-12-05T14:21:48.107Z,1.97
2023-12-05T14:24:16.396Z,1.98
2023-12-05T14:26:44.165Z,2.11
2023-12-05T14:29:11.955Z,2.20
2023-12-05T14:31:39.984Z,2.16
2023-12-05T14:34:09.513Z,2.21
2023-12-05T14:36:37.480Z,2.20
2023-12-05T14:39:10.770Z,2.20
2023-12-05T14:41:39.239Z,2.07
2023-12-05T14:44:07.013Z,2.03
2023-12-05T14:46:34.778Z,1.85
2023-12-05T14:49:02.699Z,1.82
2023-12-05T14:51:30.543Z,1.46
2023-12-05T14:53:58.330Z,1.18
2023-12-05T14:56:26.061Z,1.29
2023-12-05T14:58:53.890Z,1.65
2023-12-05T15:01:21.685Z,1.75
2023-12-05T15:03:51.336Z,1.53
2023-12-05T15:06:19.449Z,1.66
2023-12-05T15:08:48.365Z,1.59
2023-12-05T15:11:16.389Z,1.63
2023-12-05T15:13:44.225Z,1.60
2023-12-05T15:16:11.980Z,1.65
2023-12-05T15:18:39.858Z,1.36
2023-12-05T15:21:09.163Z,1.11
2023-12-05T15:23:36.988Z,0.88
2023-12-05T15:26:05.033Z,0.70
2023-12-05T15:28:34.746Z,0.76
2023-12-05T15:31:02.687Z,0.97
2023-12-05T15:33:30.724Z,1.20
2023-12-05T15:35:58.664Z,1.18
2023-12-05T15:38:28.812Z,0.84
2023-12-05T15:40:56.651Z,1.18
2023-12-05T15:43:24.441Z,1.14
2023-12-05T15:45:52.565Z,1.23
2023-12-05T15:48:43.126Z,0.70
2023-12-05T15:51:08.141Z,0.80
2023-12-05T15:53:36.806Z,0.19
2023-12-05T15:56:04.974Z,0.58
2023-12-05T15:58:32.953Z,0.39
2023-12-05T16:01:00.868Z,0.36
2023-12-05T16:03:28.943Z,0.70
2023-12-05T16:05:56.712Z,0.89
2023-12-05T16:08:24.919Z,0.83
2023-12-05T16:10:53.743Z,0.63
2023-12-05T16:13:22.182Z,0.68
2023-12-05T16:15:50.296Z,0.33
2023-12-05T16:18:18.162Z,0.27
2023-12-05T16:20:46.088Z,0.44
2023-12-05T16:23:13.909Z,0.40
2023-12-05T16:25:42.200Z,0.62
2023-12-05T16:28:09.985Z,0.48
2023-12-05T16:30:38.104Z,0.30
2023-12-05T16:33:05.974Z,0.21
2023-12-05T16:35:33.851Z,0.52
2023-12-05T16:38:01.617Z,0.77
2023-12-05T16:40:29.500Z,0.52
2023-12-05T16:42:57.282Z,0.53
2023-12-05T16:45:27.061Z,0.82
2023-12-05T16:48:00.005Z,0.73
2023-12-05T16:50:28.081Z,0.82
2023-12-05T16:52:55.869Z,0.83
2023-12-05T16:55:23.641Z,0.95
2023-12-05T16:57:51.421Z,0.94
2023-12-05T17:00:19.681Z,0.41
2023-12-05T17:02:47.536Z,0.76
2023-12-05T17:05:15.502Z,0.66
2023-12-05T17:07:44.078Z,0.73
2023-12-05T17:10:11.916Z,0.59
2023-12-05T17:12:39.665Z,0.40
2023-12-05T17:15:07.790Z,0.35
2023-12-05T17:17:35.637Z,0.71
2023-12-05T17:20:04.599Z,0.76
2023-12-05T17:22:32.871Z,0.72
2023-12-05T17:25:01.289Z,0.24
2023-12-05T17:27:29.087Z,0.20
2023-12-05T17:29:57.069Z,-0.03
2023-12-05T17:32:28.314Z,0.11
2023-12-05T17:34:57.197Z,-0.33
2023-12-05T17:37:27.494Z,-0.30
2023-12-05T17:39:55.370Z,-0.51
2023-12-05T17:42:23.177Z,-0.71
2023-12-05T17:44:54.166Z,-0.76
2023-12-05T17:47:22.613Z,-0.91
2023-12-05T17:49:53.095Z,-0.48
2023-12-05T17:52:21.217Z,-0.47
2023-12-05T17:54:49.083Z,-0.11
2023-12-05T17:57:17.189Z,0.08
2023-12-05T17:59:46.449Z,0.01
2023-12-05T18:02:15.363Z,0.07
2023-12-05T18:04:43.372Z,0.11
2023-12-05T18:07:50.937Z,-0.28
2023-12-05T18:09:59.336Z,-0.52
2023-12-05T18:12:27.342Z,-0.32
2023-12-05T18:14:55.202Z,0.08
2023-12-05T18:17:23.009Z,0.16
2023-12-05T18:19:51.232Z,0.25
2023-12-05T18:22:19.781Z,0.34
2023-12-05T18:24:47.803Z,0.38
2023-12-05T18:27:15.692Z,0.44
2023-12-05T18:29:45.629Z,0.50
2023-12-05T18:32:14.576Z,0.46
2023-12-05T18:34:42.612Z,0.52
2023-12-05T18:37:10.414Z,0.55
2023-12-05T18:39:38.206Z,0.65
2023-12-05T18:42:06.231Z,0.52
2023-12-05T18:44:33.970Z,0.57
2023-12-05T18:47:01.716Z,0.55
2023-12-05T18:49:29.717Z,0.52
2023-12-05T18:51:57.515Z,0.46
2023-12-05T18:54:25.586Z,0.53
2023-12-05T18:56:53.370Z,0.47
2023-12-05T18:59:21.343Z,0.34
2023-12-05T19:01:50.208Z,0.39
2023-12-05T19:04:18.033Z,0.32
2023-12-05T19:06:45.957Z,0.43
2023-12-05T19:09:13.916Z,0.16
2023-12-05T19:11:42.601Z,0.34
2023-12-05T19:14:10.695Z,0.17
2023-12-05T19:16:38.504Z,0.01
2023-12-05T19:19:09.151Z,0.17
2023-12-05T19:21:37.195Z,0.30
2023-12-05T19:24:04.983Z,0.26
2023-12-05T19:26:32.864Z,0.23
2023-12-05T19:29:01.328Z,0.27
2023-12-05T19:31:31.998Z,0.32
2023-12-05T19:33:59.986Z,-0.02
2023-12-05T19:36:27.909Z,0.20
2023-12-05T19:38:55.778Z,-0.31
2023-12-05T19:41:23.634Z,0.16
2023-12-05T19:43:52.695Z,0.08
2023-12-05T19:46:20.585Z,-0.20
2023-12-05T19:48:50.123Z,0.17
2023-12-05T19:51:18.797Z,0.12
2023-12-05T19:53:46.648Z,-0.20
2023-12-05T19:56:15.730Z,-0.21
2023-12-05T19:58:43.674Z,0.10
2023-12-05T20:01:11.745Z,0.09
2023-12-05T20:03:39.672Z,0.31
2023-12-05T20:06:07.884Z,-0.25
2023-12-05T20:08:35.618Z,0.07
2023-12-05T20:11:03.590Z,0.14
2023-12-05T20:13:31.664Z,-0.74
2023-12-05T20:15:59.468Z,-0.06
2023-12-05T20:18:27.315Z,-0.16
2023-12-05T20:20:55.206Z,-0.01
2023-12-05T20:23:23.971Z,0.16
2023-12-05T20:25:51.879Z,0.25
2023-12-05T20:28:20.378Z,0.25
2023-12-05T20:30:50.175Z,0.25
2023-12-05T20:33:18.131Z,0.21
2023-12-05T20:35:45.922Z,0.35
2023-12-05T20:38:13.736Z,0.23
2023-12-05T20:40:41.590Z,0.01
2023-12-05T20:43:09.459Z,0.28
2023-12-05T20:45:37.333Z,0.41
2023-12-05T20:48:05.368Z,0.33
2023-12-05T20:50:33.222Z,0.35
2023-12-05T20:53:01.125Z,0.34
2023-12-05T20:55:28.893Z,0.10
2023-12-05T20:57:56.688Z,0.24
2023-12-05T21:00:24.460Z,0.44
2023-12-05T21:02:52.243Z,0.48
2023-12-05T21:05:20.142Z,0.53
2023-12-05T21:07:48.443Z,0.53
2023-12-05T21:10:16.424Z,0.51
2023-12-05T21:12:44.209Z,0.51
2023-12-05T21:15:12.038Z,0.43
2023-12-05T21:17:39.980Z,0.45
2023-12-05T21:20:11.151Z,0.41
2023-12-05T21:22:39.051Z,0.22
2023-12-05T21:25:07.406Z,0.20
2023-12-05T21:27:35.276Z,0.39
2023-12-05T21:30:03.228Z,0.43
2023-12-05T21:32:30.971Z,0.37
2023-12-05T21:34:58.823Z,0.39
2023-12-05T21:37:26.678Z,0.36
2023-12-05T21:39:54.458Z,0.40
2023-12-05T21:42:22.588Z,0.39
2023-12-05T21:44:50.385Z,0.33
2023-12-05T21:47:19.314Z,0.45
2023-12-05T21:49:47.204Z,0.36
2023-12-05T21:52:15.199Z,0.39
2023-12-05T21:54:43.086Z,0.06
2023-12-05T21:57:10.916Z,-0.04
2023-12-05T21:59:38.640Z,0.18
2023-12-05T22:02:06.641Z,0.16
2023-12-05T22:04:34.655Z,0.41
2023-12-05T22:07:02.652Z,0.39
2023-12-05T22:09:30.459Z,0.41
2023-12-05T22:11:58.351Z,0.18
2023-12-05T22:14:26.062Z,0.31
2023-12-05T22:16:53.877Z,0.31
2023-12-05T22:19:21.748Z,0.11
2023-12-05T22:21:49.657Z,0.17
2023-12-05T22:24:25.506Z,0.07
2023-12-05T22:27:00.381Z,0.20
2023-12-05T22:29:28.209Z,0.31
2023-12-05T22:31:57.090Z,0.15
2023-12-05T22:34:24.974Z,-0.09
2023-12-05T22:36:53.418Z,-0.35
2023-12-05T22:39:21.184Z,-0.05
2023-12-05T22:41:49.008Z,-0.27
2023-12-05T22:44:16.738Z,-0.21
2023-12-05T22:46:44.587Z,-0.15
2023-12-05T22:49:14.465Z,-0.25
2023-12-05T22:51:43.371Z,-0.11
2023-12-05T22:54:11.204Z,-0.07
2023-12-05T22:56:39.111Z,-0.11
2023-12-05T22:59:06.840Z,-0.16
2023-12-05T23:01:34.751Z,-0.10
2023-12-05T23:04:02.540Z,-0.11
2023-12-05T23:06:30.335Z,-0.07
2023-12-05T23:08:58.266Z,-0.30
2023-12-05T23:11:26.271Z,-0.22
2023-12-05T23:13:53.987Z,-0.13
2023-12-05T23:16:21.808Z,-0.05
2023-12-05T23:18:49.655Z,-0.02
2023-12-05T23:21:17.514Z,0.05
2023-12-05T23:23:45.295Z,0.00
2023-12-05T23:26:13.228Z,-0.13
2023-12-05T23:28:41.076Z,-0.03
2023-12-05T23:31:08.983Z,-0.04
2023-12-05T23:33:36.867Z,0.03
2023-12-05T23:36:04.920Z,0.07
2023-12-05T23:38:33.081Z,-0.07
2023-12-05T23:41:12.374Z,0.07
2023-12-05T23:43:49.497Z,-0.30
2023-12-05T23:46:17.345Z,-0.20
2023-12-05T23:48:46.124Z,-0.12
2023-12-05T23:51:14.651Z,-0.30
2023-12-05T23:53:42.392Z,-0.43
2023-12-05T23:56:12.103Z,-0.13
2023-12-05T23:58:41.187Z,-0.05
